createdAt,value
2018-06-16T13:29:55.804Z,24.80
2018-06-16T13:30:59.739Z,23.75
2018-06-16T13:32:03.566Z,25.01
2018-06-16T13:33:07.367Z,25.12
2018-06-16T13:34:11.186Z,25.22
2018-06-16T13:35:15.317Z,25.31
2018-06-16T13:36:19.131Z,25.35
2018-06-16T13:37:22.945Z,25.38
2018-06-16T13:38:26.852Z,25.42
2018-06-16T13:39:30.645Z,25.44
2018-06-16T13:40:35.475Z,25.49
2018-06-16T13:41:41.106Z,25.50
2018-06-16T13:42:45.563Z,25.52
2018-06-16T13:43:49.407Z,25.55
2018-06-16T13:44:53.275Z,25.57
2018-06-16T13:45:57.054Z,25.60
2018-06-16T13:47:00.852Z,25.62
2018-06-16T13:48:05.321Z,25.66
2018-06-16T13:49:09.601Z,25.71
2018-06-16T13:50:16.278Z,25.73
2018-06-16T13:51:20.183Z,25.76
2018-06-16T13:52:24.032Z,25.74
2018-06-16T13:53:27.812Z,25.77
2018-06-16T13:54:33.929Z,25.71
2018-06-16T13:55:38.764Z,25.66
2018-06-16T13:56:45.162Z,25.65
2018-06-16T13:57:49.625Z,25.70
2018-06-16T13:58:53.435Z,25.77
2018-06-16T13:59:57.243Z,25.79
2018-06-16T14:01:01.662Z,25.78
2018-06-16T14:02:05.449Z,25.80
2018-06-16T14:03:09.514Z,25.81
2018-06-16T14:04:13.345Z,25.79
2018-06-16T14:05:17.789Z,25.79
2018-06-16T14:06:22.558Z,25.85
2018-06-16T14:07:26.784Z,25.84
2018-06-16T14:09:58.399Z,25.81
2018-06-16T14:11:05.851Z,25.79
2018-06-16T14:12:19.208Z,25.79
2018-06-16T14:13:29.831Z,25.75
2018-06-16T14:14:36.686Z,25.79
2018-06-16T14:15:43.211Z,25.81
2018-06-16T14:16:48.435Z,25.81
2018-06-16T14:17:52.392Z,25.79
2018-06-16T14:18:57.359Z,25.85
2018-06-16T14:20:04.424Z,25.87
2018-06-16T14:21:08.324Z,25.85
2018-06-16T14:22:13.287Z,25.83
2018-06-16T14:23:17.419Z,25.80
2018-06-16T14:24:23.202Z,25.81
2018-06-16T14:25:28.452Z,25.83
2018-06-16T14:26:33.892Z,25.85
2018-06-16T14:27:39.764Z,25.85
2018-06-16T14:28:44.360Z,25.83
2018-06-16T14:29:49.474Z,25.81
2018-06-16T14:30:54.539Z,25.81
2018-06-16T14:31:59.641Z,25.81
2018-06-16T14:33:05.160Z,25.81
2018-06-16T18:04:42.986Z,24.52
2018-06-16T18:05:46.982Z,25.53
2018-06-16T18:06:50.973Z,25.62
2018-06-16T18:07:54.902Z,25.70
2018-06-16T18:08:58.724Z,25.71
2018-06-16T18:10:05.575Z,25.73
2018-06-16T18:11:09.402Z,25.74
2018-06-16T18:12:16.673Z,25.75
2018-06-16T18:13:22.043Z,25.76
2018-06-16T18:14:26.695Z,25.75
2018-06-16T18:15:30.534Z,25.76
2018-06-16T18:16:36.474Z,25.77
2018-06-16T18:17:40.377Z,25.77
2018-06-16T18:18:44.736Z,25.81
2018-06-16T18:19:50.185Z,25.79
2018-06-16T18:20:57.773Z,25.80
2018-06-16T18:22:02.101Z,25.79
2018-06-16T18:23:05.887Z,25.79
2018-06-16T18:24:09.702Z,25.79
2018-06-16T18:25:13.491Z,25.78
2018-06-16T18:26:17.359Z,25.79
2018-06-16T18:27:22.965Z,25.79
2018-06-16T18:28:27.045Z,25.78
2018-06-16T18:29:32.106Z,25.78
2018-06-16T18:30:39.340Z,25.78
2018-06-16T18:31:44.937Z,25.78
2018-06-16T18:32:49.411Z,25.78
2018-06-16T18:33:54.719Z,25.79
2018-06-16T18:34:59.829Z,25.78
2018-06-16T18:36:03.721Z,25.77
2018-06-16T18:37:07.586Z,25.77
2018-06-16T18:38:11.390Z,25.76
2018-06-16T18:39:17.241Z,25.75
2018-06-16T18:40:21.564Z,25.76
2018-06-16T18:41:29.206Z,25.76
2018-06-16T18:42:34.397Z,25.74
2018-06-16T18:43:39.024Z,25.73
2018-06-16T18:44:46.425Z,25.73
2018-06-16T18:45:51.703Z,25.73
2018-06-16T18:46:56.411Z,25.71
2018-06-16T18:48:01.410Z,25.72
2018-06-16T18:49:05.245Z,25.73
2018-06-16T18:50:09.033Z,25.72
2018-06-16T18:51:12.836Z,25.74
2018-06-16T18:52:17.434Z,25.74
2018-06-16T18:53:21.891Z,25.74
2018-06-16T18:54:25.715Z,25.73
2018-06-16T18:55:29.541Z,24.52
2018-06-16T18:56:33.430Z,25.72
2018-06-16T18:57:38.939Z,25.72
2018-06-16T18:58:42.741Z,25.73
2018-06-16T18:59:48.675Z,25.73
2018-06-16T19:00:52.541Z,25.73
2018-06-16T19:01:59.022Z,25.71
2018-06-16T19:03:03.460Z,25.74
2018-06-16T19:04:08.720Z,25.72
2018-06-16T19:05:12.743Z,25.73
2018-06-16T19:06:16.999Z,25.72
2018-06-16T19:07:20.796Z,25.73
2018-06-16T19:08:25.526Z,25.73
2018-06-16T19:09:29.447Z,25.68
2018-06-16T19:10:36.903Z,25.72
2018-06-16T19:11:41.412Z,25.78
2018-06-16T19:12:45.689Z,25.83
2018-06-16T19:13:49.569Z,25.89
2018-06-16T19:14:54.224Z,25.89
2018-06-16T19:15:59.655Z,25.92
2018-06-16T19:17:03.743Z,25.85
2018-06-16T19:18:13.276Z,25.83
2018-06-16T19:19:18.540Z,25.87
2018-06-16T19:20:24.041Z,25.88
2018-06-16T19:21:28.500Z,25.90
2018-06-16T19:22:33.395Z,25.92
2018-06-16T19:23:37.673Z,25.92
2018-06-16T19:24:42.964Z,25.93
2018-06-16T19:25:49.771Z,25.94
2018-06-16T19:26:54.185Z,25.95
2018-06-16T19:27:58.657Z,25.96
2018-06-16T19:29:05.203Z,25.98
2018-06-16T19:30:11.268Z,25.98
2018-06-16T19:31:16.162Z,25.98
2018-06-16T19:32:20.440Z,25.99
2018-06-16T19:33:24.302Z,25.98
2018-06-16T19:34:28.134Z,25.99
2018-06-16T19:35:33.033Z,26.00
2018-06-16T19:36:37.568Z,25.99
2018-06-16T19:37:41.440Z,26.01
2018-06-16T19:38:45.371Z,25.99
2018-06-16T19:39:49.163Z,26.00
2018-06-16T19:40:58.099Z,26.00
2018-06-16T19:42:03.912Z,25.99
2018-06-16T19:43:08.122Z,26.01
2018-06-16T19:44:11.973Z,26.02
2018-06-16T19:45:16.099Z,26.02
2018-06-16T19:46:22.952Z,26.02
2018-06-16T19:47:26.882Z,26.04
2018-06-16T19:48:30.747Z,26.03
2018-06-16T19:49:34.908Z,26.04
2018-06-16T19:50:38.757Z,26.03
2018-06-16T19:51:44.224Z,26.03
2018-06-16T19:52:48.864Z,26.04
2018-06-16T19:53:55.836Z,26.06
2018-06-16T19:55:02.463Z,26.07
2018-06-16T19:56:13.461Z,26.08
2018-06-16T19:57:18.388Z,26.05
2018-06-16T19:58:22.681Z,26.08
2018-06-16T19:59:26.574Z,26.07
2018-06-16T20:00:33.226Z,26.09
2018-06-16T20:01:38.018Z,26.09
2018-06-16T20:02:44.123Z,26.11
2018-06-16T20:03:49.171Z,26.13
2018-06-16T20:04:53.019Z,26.10
2018-06-16T20:05:57.525Z,26.09
2018-06-16T20:07:01.971Z,26.05
2018-06-16T20:08:07.270Z,26.05
2018-06-16T20:09:14.601Z,26.08
2018-06-16T20:10:20.579Z,26.09
2018-06-16T20:11:26.137Z,26.10
2018-06-16T20:12:30.721Z,26.08
2018-06-16T20:13:36.731Z,26.10
2018-06-16T20:14:41.664Z,26.10
2018-06-16T20:15:46.013Z,26.12
2018-06-16T20:16:51.362Z,26.10
2018-06-16T20:17:55.824Z,26.10
2018-06-16T20:19:01.422Z,26.09
2018-06-16T20:20:10.177Z,26.09
